Brittany, LA (70718)

12:05 AM CDT on May 28, 2017 (GMT -0500)
B. Phillips | | Change Station
Active Advisory: Flood Warning

Elev 10 ft 30.24 °N, 90.87 °W | Updated 12 seconds ago

Mostly Cloudy
Mostly Cloudy
78.5 °F
Feels Like 82 °F
N
0.0
Wind Variable Wind from SSW

Today
High -- | Low -- °F
--% Chance of Precip.
Yesterday
High -- | Low -- °F
Precip. -- in
Pressure 29.91 in
Visibility 10.0 miles
Clouds Clear
Heat Index 82 °F
Dew Point 75 °F
Humidity 90%
Rainfall 0.00 in
Snow Depth Not available.
6:03 AM 7:58 PM
Waxing Crescent, 9% visible
METAR KBTR 280453Z 17011KT 10SM CLR 26/24 A2991 RMK AO2 SLP126 T02610239
Pressure 29.91 in
Visibility 10.0 miles
Clouds Clear
Heat Index 82 °F
Dew Point 75 °F
Humidity 90%
Rainfall 0.00 in
Snow Depth Not available.
6:03 AM 7:58 PM
Waxing Crescent, 9% visible
METAR KBTR 280453Z 17011KT 10SM CLR 26/24 A2991 RMK AO2 SLP126 T02610239

Get Your Daily Forecast Email!

Thanks for signing up!

Be on the lookout for a verification email in your inbox.

You'll start receiving severe weather alerts in your inbox..

×

10-Day Weather Forecast

Almanac

Astronomy

May. 28, 2017 Rise Set
Actual Time
Civil Twilight
Nautical Twilight
Astronomical Twilight
Moon
Length of Visible Light
Length of Day
Tomorrow will be .
, % of the Moon is Illuminated

Today's Extremes

State Highs State Lows

Community

WunderPhotos

Category 6

Welcome to Category 6. This is the collective home for Weather Underground's featured writeups by Dr. Jeff Masters (right), Bob Henson (left), Chris Burt, and other regular contributors.

Nearby

Air Quality

  Air Quality AQ Index Pollutant
Not available.

Snow Depth

Station Depth Elevation

Earthquake Activity

City Distance Mag. Time & Date
Minimum magnitude displayed is 2.5.

Coastal Water Temperatures

Place Temperature

Stations

Nearby Weather Stations

Station Location Temp. Windchill Dew Point Humidity Wind Precip. Elev Updated Type
                   

Watches & Warnings

Flood Warning
Issued: 7:40 PM CDT May. 27, 2017 – National Weather Service

The Flood Warning continues for
the Mississippi River at Donaldsonville.
* Until Monday June 12.
* At 7:00 PM Saturday the stage was 29.8 feet.
* Minor flooding is occurring and minor flooding is forecast.
* Flood stage is 27.0 feet.
* Forecast... the river is forecast to remain near 29.8 feet
through Wednesday, may 31st, then begin a slow fall. The river
is forecast to fall below flood stage on Monday, June 12th.
* Impact... at 27.0 feet... navigation becomes difficult for smaller
river craft. Safety precautions for river traffic are urged.


Lat... Lon 3035 9113 3032 9130 3001 9087 3009 9079